Time;durP1;ratioP1;P1;durP2;ratioP2;P2;SDS_P1;SDS_P2;PMS_P1;PMS_P2;Temp;Humidity;BMP_temperature;BMP_pressure;BME280_temperature;BME280_humidity;BME280_pressure;Samples;Min_cycle;Max_cycle;Signal;HPM_P1;HPM_P2
2023/11/14 00:02:24;;;;;;;11.23;2.00;;;;;;;10.88;100.00;97454.63;5048279;28;20235;-80
2023/11/14 00:04:51;;;;;;;4.87;1.57;;;;;;;10.91;100.00;97464.94;5046131;28;20298;-80
2023/11/14 00:07:17;;;;;;;4.60;1.33;;;;;;;10.88;100.00;97459.91;5047435;28;20670;-83
2023/11/14 00:09:44;;;;;;;10.03;2.03;;;;;;;10.87;100.00;97453.78;5047060;28;20261;-81
2023/11/14 00:12:10;;;;;;;7.47;1.57;;;;;;;10.90;100.00;97458.81;5046623;28;20770;-81
2023/11/14 00:14:37;;;;;;;8.70;1.77;;;;;;;10.93;100.00;97441.84;5046108;28;20210;-78
2023/11/14 00:17:04;;;;;;;7.40;1.47;;;;;;;10.92;100.00;97454.25;5046091;28;20221;-78
2023/11/14 00:19:32;;;;;;;4.00;1.50;;;;;;;10.90;100.00;97445.59;5048095;28;20289;-80
2023/11/14 00:21:58;;;;;;;5.47;1.70;;;;;;;10.91;100.00;97441.16;5046840;28;20232;-80
2023/11/14 00:24:24;;;;;;;8.87;1.70;;;;;;;10.89;100.00;97448.38;5046719;28;20288;-81
2023/11/14 00:26:51;;;;;;;8.17;1.87;;;;;;;10.88;100.00;97452.81;5045698;28;20215;-79
2023/11/14 00:29:18;;;;;;;5.37;1.77;;;;;;;10.86;100.00;97451.25;5046206;28;20592;-80
2023/11/14 00:31:44;;;;;;;6.50;1.40;;;;;;;10.82;100.00;97455.13;5045411;28;20323;-79
2023/11/14 00:34:11;;;;;;;5.93;1.83;;;;;;;10.75;100.00;97449.47;5044570;28;20236;-79
2023/11/14 00:36:39;;;;;;;4.37;1.40;;;;;;;10.63;100.00;97450.47;5043863;28;20221;-79
2023/11/14 00:39:05;;;;;;;4.23;1.60;;;;;;;10.50;100.00;97448.91;5046264;28;20693;-79
2023/11/14 00:41:32;;;;;;;6.23;1.43;;;;;;;10.37;100.00;97451.72;5046452;28;20698;-81
2023/11/14 00:43:58;;;;;;;7.57;1.60;;;;;;;10.31;100.00;97451.34;5045440;28;20214;-80
2023/11/14 00:46:25;;;;;;;9.03;2.07;;;;;;;10.23;100.00;97467.81;5045348;28;20220;-79
2023/11/14 00:48:51;;;;;;;5.30;1.70;;;;;;;10.19;100.00;97481.34;5045091;28;20225;-80
2023/11/14 00:51:18;;;;;;;9.27;1.80;;;;;;;10.23;100.00;97477.50;5045543;28;20300;-81
2023/11/14 00:53:45;;;;;;;7.47;1.50;;;;;;;10.22;100.00;97475.84;5043829;28;20211;-80
2023/11/14 00:56:12;;;;;;;5.50;1.93;;;;;;;10.18;100.00;97482.31;5043599;28;20208;-81
2023/11/14 00:58:39;;;;;;;7.90;1.50;;;;;;;10.15;100.00;97475.47;5044149;28;20226;-81
2023/11/14 01:01:05;;;;;;;6.43;1.87;;;;;;;10.04;100.00;97477.25;5044080;28;20769;-79
2023/11/14 01:03:32;;;;;;;4.33;1.43;;;;;;;9.99;100.00;97482.03;5043232;28;20283;-78
2023/11/14 01:05:58;;;;;;;7.10;1.70;;;;;;;10.00;100.00;97481.06;5043098;28;20657;-81
2023/11/14 01:08:25;;;;;;;10.40;1.97;;;;;;;9.98;100.00;97480.34;5042781;28;20236;-81
2023/11/14 01:10:53;;;;;;;6.40;1.63;;;;;;;9.99;100.00;97484.66;5043389;28;20210;-80
2023/11/14 01:13:19;;;;;;;3.70;1.53;;;;;;;9.95;100.00;97489.34;5043064;28;20206;-82
2023/11/14 01:15:46;;;;;;;8.60;1.80;;;;;;;10.02;100.00;97501.09;5042941;28;20204;-79
2023/11/14 01:18:13;;;;;;;8.30;1.67;;;;;;;10.09;100.00;97491.78;5040871;28;20709;-81
2023/11/14 01:20:39;;;;;;;5.83;1.30;;;;;;;10.14;100.00;97492.28;5040633;28;20268;-79
2023/11/14 01:23:06;;;;;;;8.70;2.17;;;;;;;10.14;100.00;97501.97;5041514;28;20272;-79
2023/11/14 01:25:32;;;;;;;5.73;1.40;;;;;;;10.18;100.00;97514.00;5040275;28;20255;-80
2023/11/14 01:28:00;;;;;;;5.37;1.40;;;;;;;10.22;100.00;97518.09;5040357;28;20324;-80
2023/11/14 01:30:27;;;;;;;2.33;1.10;;;;;;;10.24;100.00;97500.31;5045347;28;20242;-80
2023/11/14 01:32:53;;;;;;;10.23;1.70;;;;;;;10.21;100.00;97513.78;5051896;28;20235;-81
2023/11/14 01:35:20;;;;;;;9.83;1.53;;;;;;;10.19;100.00;97518.31;5050583;28;20208;-81
2023/11/14 01:37:46;;;;;;;8.47;1.50;;;;;;;10.16;100.00;97526.50;5047274;28;20230;-81
2023/11/14 01:40:13;;;;;;;4.40;1.10;;;;;;;10.15;100.00;97516.88;5046322;28;20206;-81
2023/11/14 01:42:40;;;;;;;5.43;1.87;;;;;;;10.11;100.00;97521.56;5044820;28;20246;-80
2023/11/14 01:45:09;;;;;;;6.97;1.30;;;;;;;10.15;100.00;97517.72;5040843;28;20213;-80
2023/11/14 01:47:35;;;;;;;3.93;1.37;;;;;;;10.15;100.00;97532.72;5039284;28;20261;-80
2023/11/14 01:50:02;;;;;;;8.80;1.80;;;;;;;10.15;100.00;97527.44;5039105;28;20240;-79
2023/11/14 01:52:29;;;;;;;10.40;2.20;;;;;;;10.16;100.00;97518.56;5037668;28;20232;-80
2023/11/14 01:54:56;;;;;;;4.07;1.57;;;;;;;10.12;100.00;97522.38;5038059;28;20223;-80
2023/11/14 01:57:22;;;;;;;4.20;1.37;;;;;;;10.06;100.00;97530.78;5038169;28;20212;-79
2023/11/14 01:59:50;;;;;;;5.93;2.10;;;;;;;10.08;100.00;97536.78;5038713;28;20213;-80
2023/11/14 02:02:18;;;;;;;8.73;2.00;;;;;;;10.12;100.00;97554.06;5038282;28;20234;-80
2023/11/14 02:04:48;;;;;;;6.80;1.57;;;;;;;10.12;100.00;97544.38;5037194;28;20211;-80
2023/11/14 02:07:14;;;;;;;6.00;1.57;;;;;;;10.10;100.00;97535.69;5037411;28;20250;-80
2023/11/14 02:09:41;;;;;;;5.97;1.80;;;;;;;10.10;100.00;97522.50;5036775;28;20229;-79
2023/11/14 02:12:08;;;;;;;4.77;1.60;;;;;;;10.08;100.00;97520.94;5037493;28;20718;-80
2023/11/14 02:14:35;;;;;;;4.93;1.40;;;;;;;10.08;100.00;97515.66;5036482;28;20299;-80
2023/11/14 02:17:02;;;;;;;4.47;1.87;;;;;;;10.10;100.00;97513.75;5040419;28;20240;-83
2023/11/14 02:19:31;;;;;;;5.83;1.40;;;;;;;10.16;100.00;97516.75;5055643;28;20196;-79
2023/11/14 02:21:57;;;;;;;5.80;1.50;;;;;;;10.15;100.00;97516.88;5056843;28;20213;-82
2023/11/14 02:24:25;;;;;;;4.20;1.40;;;;;;;10.13;100.00;97529.34;5054656;28;20211;-81
2023/11/14 02:26:53;;;;;;;6.87;1.60;;;;;;;10.09;100.00;97527.91;5054242;28;20214;-81
2023/11/14 02:29:21;;;;;;;6.20;1.67;;;;;;;10.05;100.00;97532.59;5049315;28;20229;-81
2023/11/14 02:31:48;;;;;;;6.00;1.60;;;;;;;10.01;100.00;97536.38;5048639;28;20242;-80
2023/11/14 02:34:14;;;;;;;3.80;1.60;;;;;;;9.99;100.00;97532.19;5040234;28;20215;-81
2023/11/14 02:36:41;;;;;;;6.37;1.40;;;;;;;9.99;100.00;97533.03;5037394;28;20245;-81
2023/11/14 02:39:08;;;;;;;7.83;1.93;;;;;;;9.99;100.00;97542.75;5037266;28;20207;-82
2023/11/14 02:41:35;;;;;;;7.70;1.93;;;;;;;9.96;100.00;97532.41;5036726;28;20234;-80
2023/11/14 02:44:04;;;;;;;6.73;1.30;;;;;;;9.99;100.00;97535.66;5036011;28;20265;-81
2023/11/14 02:46:30;;;;;;;4.30;1.43;;;;;;;9.96;100.00;97532.41;5037587;28;20226;-82
2023/11/14 02:48:58;;;;;;;5.53;2.00;;;;;;;10.03;100.00;97531.00;5043595;28;20286;-82
2023/11/14 02:51:24;;;;;;;9.10;1.80;;;;;;;10.06;100.00;97517.59;5025115;28;20237;-83
2023/11/14 02:53:53;;;;;;;7.10;1.50;;;;;;;10.09;100.00;97514.72;5043282;28;20223;-82
2023/11/14 02:56:20;;;;;;;7.87;1.73;;;;;;;10.11;100.00;97520.72;5044057;28;20676;-82
2023/11/14 02:58:46;;;;;;;10.83;2.20;;;;;;;10.10;100.00;97509.28;5025786;28;20207;-81
2023/11/14 03:01:14;;;;;;;5.93;2.13;;;;;;;10.10;100.00;97508.47;5043295;28;20234;-82
2023/11/14 03:03:44;;;;;;;6.47;1.50;;;;;;;10.04;100.00;97514.22;5042988;28;20218;-81
2023/11/14 03:06:11;;;;;;;5.47;1.63;;;;;;;9.98;100.00;97512.03;5043316;28;20576;-81
2023/11/14 03:08:37;;;;;;;5.77;1.90;;;;;;;9.95;100.00;97530.72;5043377;28;20229;-83
2023/11/14 03:11:04;;;;;;;6.77;1.50;;;;;;;10.00;100.00;97541.78;5042485;28;20228;-82
2023/11/14 03:13:30;;;;;;;4.57;1.53;;;;;;;9.94;100.00;97551.00;5042580;28;20247;-82
2023/11/14 03:15:57;;;;;;;5.63;1.60;;;;;;;10.05;100.00;97558.16;5042726;28;20243;-82
2023/11/14 03:18:25;;;;;;;6.03;1.33;;;;;;;10.02;100.00;97566.25;5042783;28;20306;-83
2023/11/14 03:20:51;;;;;;;6.47;1.90;;;;;;;10.03;100.00;97570.59;5042916;28;20219;-82
2023/11/14 03:23:18;;;;;;;6.80;1.50;;;;;;;10.05;100.00;97572.19;5042198;28;20209;-81
2023/11/14 03:25:44;;;;;;;10.13;2.07;;;;;;;10.09;100.00;97575.44;5041217;28;20223;-83
2023/11/14 03:28:11;;;;;;;8.73;1.90;;;;;;;10.11;100.00;97573.53;5042109;28;20213;-81
2023/11/14 03:30:37;;;;;;;5.53;1.57;;;;;;;10.08;100.00;97579.88;5042415;28;20212;-81
2023/11/14 03:33:04;;;;;;;4.13;1.30;;;;;;;10.11;100.00;97578.81;5042282;28;20718;-80
2023/11/14 03:35:32;;;;;;;7.77;2.20;;;;;;;10.15;100.00;97561.78;5041420;28;20561;-80
2023/11/14 03:37:58;;;;;;;5.63;1.53;;;;;;;10.17;100.00;97573.91;5041419;28;20213;-81
2023/11/14 03:40:25;;;;;;;5.80;1.70;;;;;;;10.10;100.00;97587.69;5043149;28;20205;-83
2023/11/14 03:42:52;;;;;;;7.10;1.73;;;;;;;10.09;100.00;97601.84;5052101;28;20233;-82
2023/11/14 03:45:18;;;;;;;3.10;1.47;;;;;;;10.03;100.00;97604.91;5051332;28;20214;-82
2023/11/14 03:47:45;;;;;;;7.83;2.27;;;;;;;10.01;100.00;97607.66;5051827;28;20230;-81
2023/11/14 03:50:12;;;;;;;7.23;1.70;;;;;;;9.96;100.00;97627.44;5056715;28;20249;-80
2023/11/14 03:52:40;;;;;;;6.63;1.80;;;;;;;9.94;100.00;97634.63;5056420;28;20223;-80
2023/11/14 03:55:07;;;;;;;6.03;1.70;;;;;;;9.88;100.00;97643.84;5053578;28;20212;-82
2023/11/14 03:57:34;;;;;;;6.03;1.50;;;;;;;9.83;100.00;97642.50;5050504;28;20474;-81
2023/11/14 04:00:00;;;;;;;5.33;1.43;;;;;;;9.91;100.00;97648.06;5050216;28;20211;-83
2023/11/14 04:02:28;;;;;;;4.77;1.77;;;;;;;9.89;100.00;97647.31;5049422;28;20236;-82
2023/11/14 04:04:54;;;;;;;5.83;1.80;;;;;;;9.84;100.00;97639.75;5048867;28;20584;-83
2023/11/14 04:07:21;;;;;;;6.80;2.03;;;;;;;9.87;100.00;97628.13;5048257;28;20223;-81
2023/11/14 04:09:51;;;;;;;5.83;1.40;;;;;;;9.89;100.00;97616.50;5047312;28;20228;-81
2023/11/14 04:12:18;;;;;;;6.73;1.80;;;;;;;9.89;100.00;97626.19;5046159;28;20231;-83
2023/11/14 04:14:44;;;;;;;5.53;1.77;;;;;;;9.89;100.00;97628.84;5047266;28;20215;-82
2023/11/14 04:17:11;;;;;;;7.40;1.90;;;;;;;9.93;100.00;97623.25;5046181;28;20304;-82
2023/11/14 04:19:37;;;;;;;9.00;1.87;;;;;;;9.96;100.00;97625.63;5046391;28;20223;-83
2023/11/14 04:22:04;;;;;;;4.53;1.53;;;;;;;10.03;100.00;97624.25;5046421;28;20243;-83
2023/11/14 04:24:32;;;;;;;5.83;1.80;;;;;;;10.02;100.00;97621.69;5045370;28;20303;-81
2023/11/14 04:27:00;;;;;;;8.37;1.17;;;;;;;10.15;100.00;97622.50;5045194;28;20307;-80
2023/11/14 04:29:26;;;;;;;5.43;1.40;;;;;;;10.23;100.00;97628.03;5046033;28;20225;-83
2023/11/14 04:31:53;;;;;;;6.57;1.40;;;;;;;10.21;100.00;97619.41;5046081;28;20794;-81
2023/11/14 04:34:20;;;;;;;6.63;1.53;;;;;;;10.23;100.00;97620.13;5044507;28;20667;-83
2023/11/14 04:36:46;;;;;;;5.10;1.47;;;;;;;10.18;100.00;97622.25;5027146;28;20215;-83
2023/11/14 04:39:13;;;;;;;5.27;1.60;;;;;;;10.16;100.00;97625.00;5045433;28;20213;-83
2023/11/14 04:41:42;;;;;;;4.63;1.40;;;;;;;10.15;100.00;97622.50;5044191;28;20225;-81
2023/11/14 04:44:10;;;;;;;6.23;1.50;;;;;;;10.08;100.00;97626.53;5043563;28;20215;-82
2023/11/14 04:46:37;;;;;;;7.13;1.77;;;;;;;10.09;100.00;97621.16;5043548;28;20216;-82
2023/11/14 04:49:03;;;;;;;6.40;1.57;;;;;;;10.12;100.00;97620.94;5044545;28;20263;-82
2023/11/14 04:51:30;;;;;;;3.27;1.30;;;;;;;10.05;100.00;97610.94;5042902;28;20317;-81
2023/11/14 04:53:56;;;;;;;6.20;1.50;;;;;;;10.02;100.00;97626.97;5043426;28;20220;-81
2023/11/14 04:56:23;;;;;;;7.30;1.87;;;;;;;10.13;100.00;97621.75;5043138;28;20689;-82
2023/11/14 04:58:49;;;;;;;5.70;1.53;;;;;;;10.09;100.00;97612.41;5042871;28;20667;-82
2023/11/14 05:01:17;;;;;;;4.20;1.27;;;;;;;10.03;100.00;97618.97;5045253;28;20228;-82
2023/11/14 05:03:43;;;;;;;6.07;1.50;;;;;;;10.01;100.00;97625.28;5048764;28;20219;-82
2023/11/14 05:06:10;;;;;;;3.60;1.47;;;;;;;10.06;100.00;97631.09;5048315;28;20215;-83
2023/11/14 05:08:36;;;;;;;3.73;1.47;;;;;;;10.03;100.00;97641.88;5046927;28;20227;-82
2023/11/14 05:11:04;;;;;;;4.80;1.70;;;;;;;9.99;100.00;97661.53;5050406;28;20239;-81
2023/11/14 05:13:31;;;;;;;7.03;1.53;;;;;;;9.90;100.00;97656.94;5047667;28;20211;-83
2023/11/14 05:15:58;;;;;;;4.37;1.50;;;;;;;9.82;100.00;97643.44;5048200;28;20216;-82
2023/11/14 05:18:26;;;;;;;2.07;1.40;;;;;;;9.77;100.00;97654.34;5051618;28;20216;-81
2023/11/14 05:20:52;;;;;;;2.57;1.40;;;;;;;9.74;100.00;97648.47;5048048;28;20222;-82
2023/11/14 05:23:18;;;;;;;4.33;1.30;;;;;;;9.68;100.00;97654.19;5047834;28;20205;-82
2023/11/14 05:25:45;;;;;;;6.33;1.57;;;;;;;9.75;100.00;97655.41;5047165;28;20311;-82
2023/11/14 05:28:11;;;;;;;7.10;1.57;;;;;;;9.84;100.00;97655.59;5048156;28;20213;-82
2023/11/14 05:30:38;;;;;;;7.03;1.90;;;;;;;9.86;100.00;97650.19;5046870;28;20608;-84
2023/11/14 05:33:04;;;;;;;3.77;1.43;;;;;;;9.92;100.00;97657.66;5045286;28;20212;-81
2023/11/14 05:35:32;;;;;;;5.60;1.73;;;;;;;9.96;100.00;97669.66;5046608;28;20212;-81
2023/11/14 05:37:59;;;;;;;6.40;1.50;;;;;;;10.00;100.00;97676.41;5045913;28;20264;-82
2023/11/14 05:40:25;;;;;;;4.10;1.10;;;;;;;9.97;100.00;97672.19;5045259;28;20369;-82
2023/11/14 05:42:52;;;;;;;5.17;1.50;;;;;;;9.92;100.00;97673.50;5045302;28;20233;-81
2023/11/14 05:45:19;;;;;;;3.03;1.43;;;;;;;9.94;100.00;97682.13;5045101;28;20240;-81
2023/11/14 05:47:46;;;;;;;2.93;1.13;;;;;;;9.97;100.00;97687.22;5045183;28;20564;-81
2023/11/14 05:50:13;;;;;;;9.63;1.90;;;;;;;9.97;100.00;97679.28;5041908;28;20229;-80
2023/11/14 05:52:40;;;;;;;2.93;1.40;;;;;;;10.01;100.00;97681.59;5038343;28;20577;-80
2023/11/14 05:55:08;;;;;;;6.37;1.80;;;;;;;9.95;100.00;97667.97;5036310;28;20219;-80
2023/11/14 05:57:35;;;;;;;5.77;1.33;;;;;;;9.99;100.00;97666.81;5018570;28;20250;-80
2023/11/14 06:00:02;;;;;;;3.37;1.23;;;;;;;9.88;100.00;97670.25;5034396;28;20206;-80
2023/11/14 06:02:29;;;;;;;6.33;1.33;;;;;;;9.81;100.00;97681.34;5033603;28;20294;-81
2023/11/14 06:04:55;;;;;;;5.03;1.73;;;;;;;9.76;100.00;97667.66;5033275;28;20232;-81
2023/11/14 06:07:22;;;;;;;11.33;2.07;;;;;;;9.71;100.00;97681.19;5034408;28;20226;-80
2023/11/14 06:09:50;;;;;;;4.87;1.50;;;;;;;9.72;100.00;97688.16;5046641;28;20235;-81
2023/11/14 06:12:17;;;;;;;3.13;1.23;;;;;;;9.76;100.00;97686.13;5054846;28;20260;-80
2023/11/14 06:14:43;;;;;;;3.90;1.47;;;;;;;9.81;100.00;97679.56;5055648;28;20211;-81
2023/11/14 06:17:10;;;;;;;7.80;1.77;;;;;;;9.86;100.00;97668.69;5046745;28;20215;-81
2023/11/14 06:19:39;;;;;;;4.83;1.20;;;;;;;9.90;100.00;97660.41;5040569;28;20188;-79
2023/11/14 06:22:05;;;;;;;3.13;1.40;;;;;;;9.84;100.00;97666.13;5045282;28;20235;-80
2023/11/14 06:24:32;;;;;;;3.53;1.27;;;;;;;9.76;100.00;97675.56;5047086;28;20577;-80
2023/11/14 06:27:00;;;;;;;5.40;1.27;;;;;;;9.71;100.00;97680.34;5046371;28;20276;-80
2023/11/14 06:29:26;;;;;;;4.27;1.53;;;;;;;9.68;100.00;97680.56;5046348;28;20208;-80
2023/11/14 06:31:53;;;;;;;7.30;1.60;;;;;;;9.61;100.00;97679.34;5046330;28;20634;-79
2023/11/14 06:34:21;;;;;;;5.07;1.30;;;;;;;9.55;100.00;97679.78;5046508;28;20215;-80
2023/11/14 06:36:47;;;;;;;7.20;2.20;;;;;;;9.50;100.00;97685.41;5046214;28;20306;-80
2023/11/14 06:39:14;;;;;;;4.53;1.40;;;;;;;9.41;100.00;97688.69;5046808;28;20212;-79
2023/11/14 06:41:40;;;;;;;5.70;1.50;;;;;;;9.34;100.00;97697.13;5054214;28;20249;-80
2023/11/14 06:44:08;;;;;;;5.40;1.40;;;;;;;9.26;100.00;97702.09;5046618;28;20211;-82
2023/11/14 06:46:35;;;;;;;2.07;1.53;;;;;;;9.28;100.00;97716.88;5048528;28;20226;-80
2023/11/14 06:49:01;;;;;;;3.03;1.23;;;;;;;9.28;100.00;97723.94;5048349;28;20212;-80
2023/11/14 06:51:28;;;;;;;3.07;1.47;;;;;;;9.26;100.00;97715.28;5047278;28;20290;-80
2023/11/14 06:53:55;;;;;;;4.10;1.20;;;;;;;9.34;100.00;97708.53;5046097;28;20282;-79
2023/11/14 06:56:22;;;;;;;4.37;1.73;;;;;;;9.41;100.00;97708.91;5046555;28;20212;-80
2023/11/14 06:58:50;;;;;;;1.47;1.10;;;;;;;9.44;100.00;97714.84;5051369;28;20216;-81
2023/11/14 07:01:17;;;;;;;3.40;1.10;;;;;;;9.49;100.00;97722.44;5049075;28;20239;-81
2023/11/14 07:03:44;;;;;;;3.77;1.30;;;;;;;9.55;100.00;97727.25;5047819;28;20245;-80
2023/11/14 07:06:11;;;;;;;2.70;1.23;;;;;;;9.55;100.00;97722.00;5043181;28;20635;-80
2023/11/14 07:08:39;;;;;;;5.33;1.27;;;;;;;9.57;100.00;97731.47;5040168;28;20596;-78
2023/11/14 07:11:06;;;;;;;4.50;1.50;;;;;;;9.56;100.00;97732.44;5039680;28;20260;-79
2023/11/14 07:13:33;;;;;;;4.97;1.60;;;;;;;9.55;100.00;97748.38;5038073;28;20433;-79
2023/11/14 07:15:59;;;;;;;2.57;1.27;;;;;;;9.53;100.00;97755.53;5041289;28;20223;-80
2023/11/14 07:18:27;;;;;;;3.93;1.47;;;;;;;9.52;100.00;97759.13;5039417;28;20212;-82
2023/11/14 07:20:54;;;;;;;3.13;1.43;;;;;;;9.52;100.00;97754.72;5039750;28;20213;-79
2023/11/14 07:23:21;;;;;;;4.67;1.57;;;;;;;9.57;100.00;97770.19;5041440;28;20291;-79
2023/11/14 07:25:47;;;;;;;5.73;1.53;;;;;;;9.55;100.00;97756.28;5045804;28;20621;-81
2023/11/14 07:28:14;;;;;;;5.63;2.00;;;;;;;9.56;100.00;97760.59;5048935;28;20219;-81
2023/11/14 07:30:42;;;;;;;4.67;1.90;;;;;;;9.57;100.00;97762.28;5053110;28;20233;-81
2023/11/14 07:33:09;;;;;;;4.23;1.30;;;;;;;9.63;100.00;97756.56;5052561;28;20204;-79
2023/11/14 07:35:37;;;;;;;4.10;1.23;;;;;;;9.63;100.00;97735.47;5053153;28;20239;-79
2023/11/14 07:38:04;;;;;;;4.30;1.57;;;;;;;9.55;100.00;97716.72;5053242;28;20212;-79
2023/11/14 07:40:32;;;;;;;2.23;1.30;;;;;;;9.48;100.00;97741.84;5053091;28;20212;-80
2023/11/14 07:43:00;;;;;;;4.93;1.50;;;;;;;9.41;100.00;97746.69;5052981;28;20233;-79
2023/11/14 07:45:27;;;;;;;1.93;1.20;;;;;;;9.43;100.00;97743.97;5052423;28;20208;-80
2023/11/14 07:47:53;;;;;;;2.93;1.43;;;;;;;9.45;100.00;97742.06;5053054;28;20219;-79
2023/11/14 07:50:20;;;;;;;2.27;1.23;;;;;;;9.43;100.00;97749.25;5051924;28;20355;-79
2023/11/14 07:52:47;;;;;;;4.43;1.30;;;;;;;9.39;100.00;97766.22;5051937;28;20296;-80
2023/11/14 07:55:16;;;;;;;4.43;1.30;;;;;;;9.43;100.00;97778.25;5050258;28;20207;-81
2023/11/14 07:57:42;;;;;;;2.90;1.30;;;;;;;9.43;100.00;97773.81;5052009;28;20209;-82
2023/11/14 08:00:11;;;;;;;3.70;1.40;;;;;;;9.49;100.00;97754.09;5051736;28;20671;-82
2023/11/14 08:02:38;;;;;;;4.57;1.60;;;;;;;9.65;100.00;97758.16;5052582;28;20266;-81
2023/11/14 08:05:05;;;;;;;3.47;1.30;;;;;;;9.74;100.00;97746.09;5050534;28;20216;-81
2023/11/14 08:07:31;;;;;;;4.83;1.00;;;;;;;9.87;100.00;97749.53;5048127;28;20213;-81
2023/11/14 08:09:59;;;;;;;4.60;1.40;;;;;;;9.98;100.00;97753.06;5046913;28;20302;-82
2023/11/14 08:12:26;;;;;;;5.37;1.53;;;;;;;10.10;100.00;97757.50;5046259;28;20264;-80
2023/11/14 08:14:52;;;;;;;2.83;1.10;;;;;;;10.24;100.00;97767.91;5039084;28;20207;-81
2023/11/14 08:17:19;;;;;;;2.30;1.20;;;;;;;10.30;100.00;97778.03;5038328;28;20216;-81
2023/11/14 08:19:46;;;;;;;1.70;1.00;;;;;;;10.39;100.00;97793.19;5037848;28;20225;-80
2023/11/14 08:22:12;;;;;;;3.10;1.67;;;;;;;10.50;100.00;97784.44;5036801;28;20707;-80
2023/11/14 08:24:39;;;;;;;3.90;1.43;;;;;;;10.55;100.00;97806.94;5056246;28;20204;-81
2023/11/14 08:27:07;;;;;;;3.10;1.20;;;;;;;10.65;100.00;97812.41;5059452;28;20267;-79
2023/11/14 08:29:36;;;;;;;1.47;1.10;;;;;;;10.70;100.00;97815.53;5059615;28;20261;-79
2023/11/14 08:32:03;;;;;;;1.37;0.80;;;;;;;10.73;100.00;97812.66;5059259;28;20224;-81
2023/11/14 08:34:29;;;;;;;3.53;1.17;;;;;;;10.76;100.00;97789.47;5059372;28;20195;-81
2023/11/14 08:36:56;;;;;;;1.37;0.80;;;;;;;10.77;100.00;97777.13;5056272;28;20210;-82
2023/11/14 08:39:22;;;;;;;2.07;1.00;;;;;;;10.75;100.00;97776.38;5052333;28;20280;-82
2023/11/14 08:41:49;;;;;;;2.07;1.20;;;;;;;10.73;100.00;97788.88;5051974;28;20711;-82
2023/11/14 08:44:17;;;;;;;2.20;0.70;;;;;;;10.74;100.00;97774.69;5051974;28;20213;-82
2023/11/14 08:46:43;;;;;;;2.10;1.40;;;;;;;10.76;100.00;97756.94;5051836;28;20211;-80
2023/11/14 08:49:10;;;;;;;1.90;0.80;;;;;;;10.79;100.00;97761.97;5052571;28;20212;-81
2023/11/14 08:51:38;;;;;;;3.43;0.93;;;;;;;10.91;100.00;97753.13;5045488;28;20244;-79
2023/11/14 08:54:05;;;;;;;1.60;0.93;;;;;;;11.00;100.00;97747.13;5040842;28;20289;-80
2023/11/14 08:56:31;;;;;;;2.00;1.03;;;;;;;11.03;100.00;97745.09;5048849;28;20214;-79
2023/11/14 08:58:58;;;;;;;2.83;1.23;;;;;;;11.07;100.00;97730.66;5049131;28;20606;-80
2023/11/14 09:01:28;;;;;;;2.83;0.93;;;;;;;11.14;100.00;97731.03;5048599;28;20232;-80
2023/11/14 09:03:54;;;;;;;1.47;1.00;;;;;;;11.24;100.00;97747.84;5048862;28;20632;-81
2023/11/14 09:06:21;;;;;;;2.60;0.93;;;;;;;11.25;100.00;97765.44;5049461;28;20231;-80
2023/11/14 09:08:47;;;;;;;2.43;0.80;;;;;;;11.30;100.00;97773.84;5047860;28;20221;-79
2023/11/14 09:11:14;;;;;;;1.00;0.70;;;;;;;11.33;100.00;97763.03;5047391;28;20256;-79
2023/11/14 09:13:41;;;;;;;1.37;0.90;;;;;;;11.34;100.00;97759.41;5047284;28;20211;-80
2023/11/14 09:16:09;;;;;;;2.13;1.00;;;;;;;11.33;100.00;97747.16;5050831;28;20219;-82
2023/11/14 09:18:38;;;;;;;4.30;1.07;;;;;;;11.27;100.00;97743.19;5052624;28;20238;-81
2023/11/14 09:21:05;;;;;;;1.87;0.80;;;;;;;11.32;100.00;97734.91;5052037;28;20227;-81
2023/11/14 09:23:32;;;;;;;2.63;1.17;;;;;;;11.30;100.00;97728.84;5051195;28;20268;-80
2023/11/14 09:25:59;;;;;;;2.23;0.80;;;;;;;11.26;100.00;97719.50;5051426;28;20219;-81
2023/11/14 09:28:25;;;;;;;1.90;0.70;;;;;;;11.34;100.00;97719.72;5049654;28;20208;-80
2023/11/14 09:30:52;;;;;;;1.13;0.80;;;;;;;11.31;100.00;97714.69;5048317;28;20232;-80
2023/11/14 09:33:18;;;;;;;1.27;0.70;;;;;;;11.38;100.00;97739.69;5044310;28;20219;-79
2023/11/14 09:35:46;;;;;;;1.27;0.70;;;;;;;11.34;100.00;97733.81;5041067;28;20216;-79
2023/11/14 09:38:13;;;;;;;1.77;0.70;;;;;;;11.40;100.00;97737.78;5035680;28;20205;-79
2023/11/14 09:40:39;;;;;;;0.70;0.70;;;;;;;11.40;100.00;97735.13;5041754;28;20211;-80
2023/11/14 09:43:06;;;;;;;2.97;0.90;;;;;;;11.40;100.00;97737.78;5043451;28;20208;-80
2023/11/14 09:45:33;;;;;;;1.27;0.50;;;;;;;11.42;100.00;97746.41;5043252;28;20205;-80
2023/11/14 09:48:00;;;;;;;1.33;0.70;;;;;;;11.47;100.00;97749.56;5038645;28;20737;-80
2023/11/14 09:50:26;;;;;;;0.87;0.70;;;;;;;11.45;100.00;97756.78;5034746;28;20238;-79
2023/11/14 09:52:55;;;;;;;1.03;0.67;;;;;;;11.46;100.00;97753.16;5039423;28;20265;-80
2023/11/14 09:55:21;;;;;;;1.60;0.70;;;;;;;11.42;100.00;97730.53;5051998;28;20268;-80
2023/11/14 09:57:48;;;;;;;3.40;0.70;;;;;;;11.39;100.00;97728.16;5049140;28;20265;-80
2023/11/14 10:00:15;;;;;;;1.70;0.60;;;;;;;11.38;100.00;97751.09;5050413;28;20217;-80
2023/11/14 10:02:42;;;;;;;2.33;0.70;;;;;;;11.38;100.00;97745.00;5048633;28;20232;-81
2023/11/14 10:05:09;;;;;;;2.93;1.20;;;;;;;11.37;100.00;97728.25;5047405;28;20219;-81
2023/11/14 10:07:36;;;;;;;3.53;0.70;;;;;;;11.31;100.00;97743.78;5047946;28;20247;-81
2023/11/14 10:10:05;;;;;;;2.20;0.97;;;;;;;11.34;100.00;97756.78;5044579;28;20263;-80
2023/11/14 10:12:32;;;;;;;3.20;1.33;;;;;;;11.28;100.00;97766.03;5034504;28;20237;-79
2023/11/14 10:14:59;;;;;;;2.00;0.97;;;;;;;11.32;100.00;97741.00;5035106;28;20262;-79
2023/11/14 10:17:29;;;;;;;1.33;0.73;;;;;;;11.30;100.00;97742.94;5035417;28;20251;-79
2023/11/14 10:20:00;;;;;;;1.40;0.70;;;;;;;11.35;100.00;97740.78;5034678;28;20207;-79
2023/11/14 10:22:28;;;;;;;1.97;0.83;;;;;;;11.31;100.00;97747.25;5038007;28;20237;-80
2023/11/14 10:24:55;;;;;;;0.47;0.47;;;;;;;11.32;100.00;97738.38;5038061;28;20219;-80
2023/11/14 10:27:29;;;;;;;2.67;1.20;;;;;;;11.27;100.00;97727.31;5037715;28;20209;-80
2023/11/14 10:29:56;;;;;;;2.87;0.77;;;;;;;11.42;100.00;97727.91;5038154;28;20659;-80
2023/11/14 10:32:23;;;;;;;3.53;0.97;;;;;;;11.33;100.00;97728.63;5037216;28;20700;-79
2023/11/14 10:34:51;;;;;;;2.10;1.07;;;;;;;11.34;100.00;97739.09;5037205;28;20206;-80
2023/11/14 10:37:29;;;;;;;2.07;0.80;;;;;;;11.32;100.00;97727.78;5019456;28;20682;-78
2023/11/14 10:39:55;;;;;;;1.13;0.70;;;;;;;11.38;100.00;97718.53;5036139;28;20212;-80
2023/11/14 10:42:22;;;;;;;1.93;0.80;;;;;;;11.39;100.00;97733.44;5036962;28;20724;-78
2023/11/14 10:44:59;;;;;;;2.23;1.00;;;;;;;11.44;100.00;97728.63;5043498;28;20674;-81
2023/11/14 10:47:38;;;;;;;2.93;0.80;;;;;;;11.44;100.00;97744.50;5051117;28;20208;-80
2023/11/14 10:50:05;;;;;;;1.43;0.90;;;;;;;11.43;100.00;97742.84;5050376;28;20423;-82
2023/11/14 10:52:33;;;;;;;2.37;0.67;;;;;;;11.46;100.00;97756.66;5051866;28;20233;-80
2023/11/14 10:55:01;;;;;;;2.43;0.90;;;;;;;11.51;100.00;97743.06;5051117;28;20212;-82
2023/11/14 10:57:28;;;;;;;2.10;1.07;;;;;;;11.54;100.00;97745.44;5050835;28;20240;-81
2023/11/14 10:59:59;;;;;;;1.57;0.80;;;;;;;11.58;100.00;97741.59;5050244;28;20212;-81
2023/11/14 11:02:32;;;;;;;2.07;0.80;;;;;;;11.65;100.00;97721.66;5050259;28;20725;-80
2023/11/14 11:05:01;;;;;;;1.07;0.87;;;;;;;11.63;100.00;97745.59;5049241;28;20208;-79
2023/11/14 11:07:28;;;;;;;1.10;0.60;;;;;;;11.66;100.00;97740.06;5048867;28;20219;-81
2023/11/14 11:09:55;;;;;;;1.43;0.70;;;;;;;11.66;100.00;97721.53;5050389;28;20320;-81
2023/11/14 11:12:23;;;;;;;1.63;0.80;;;;;;;11.66;100.00;97697.72;5031344;28;20250;-80
2023/11/14 11:14:50;;;;;;;2.87;1.03;;;;;;;11.66;99.79;97708.31;5048796;28;20218;-82
2023/11/14 11:17:39;;;;;;;2.33;0.70;;;;;;;11.66;99.11;97702.16;5048291;28;20223;-81
2023/11/14 11:20:08;;;;;;;1.23;0.70;;;;;;;11.67;99.92;97677.41;5048530;28;20251;-81
2023/11/14 11:23:03;;;;;;;5.10;1.00;;;;;;;11.76;100.00;97658.97;5048555;28;20240;-82
2023/11/14 11:25:31;;;;;;;1.27;0.73;;;;;;;11.86;100.00;97648.47;5048221;28;20222;-81
2023/11/14 11:27:57;;;;;;;2.63;0.80;;;;;;;11.98;98.89;97636.88;5048480;28;20685;-81
2023/11/14 11:30:25;;;;;;;1.87;0.97;;;;;;;11.96;98.31;97626.38;5048590;28;20596;-82